Time;durP1;ratioP1;P1;durP2;ratioP2;P2;SDS_P1;SDS_P2;PMS_P1;PMS_P2;Temp;Humidity;BMP_temperature;BMP_pressure;BME280_temperature;BME280_humidity;BME280_pressure;Samples;Min_cycle;Max_cycle;Signal;HPM_P1;HPM_P2
2022/07/31 00:03:58;;;;;;;3.45;2.67;;;;;;;;;;10060017;28;20060;-71
2022/07/31 00:08:52;;;;;;;3.80;2.67;;;;;;;;;;10061081;28;20128;-69
2022/07/31 00:13:46;;;;;;;5.28;2.45;;;;;;;;;;10061807;28;20048;-69
2022/07/31 00:18:50;;;;;;;6.20;2.58;;;;;;;;;;10061383;28;20140;-66
2022/07/31 00:23:45;;;;;;;3.85;2.67;;;;;;;;;;10060278;28;20051;-64
2022/07/31 00:28:40;;;;;;;3.00;2.50;;;;;;;;;;10062847;28;20053;-65
2022/07/31 00:33:36;;;;;;;4.32;2.10;;;;;;;;;;10063947;28;20472;-65
2022/07/31 00:38:30;;;;;;;4.03;2.85;;;;;;;;;;10063893;28;20049;-64
2022/07/31 00:43:25;;;;;;;7.40;2.72;;;;;;;;;;10064356;28;20562;-65
2022/07/31 00:48:23;;;;;;;4.28;3.05;;;;;;;;;;10064032;28;20412;-65
2022/07/31 00:53:19;;;;;;;4.78;2.35;;;;;;;;;;10063139;28;20053;-65
2022/07/31 00:58:13;;;;;;;3.75;3.35;;;;;;;;;;10062806;28;20512;-65
2022/07/31 01:03:07;;;;;;;3.03;2.40;;;;;;;;;;10058046;28;20060;-65
2022/07/31 01:08:01;;;;;;;2.92;2.50;;;;;;;;;;10062438;28;20099;-65
2022/07/31 01:12:58;;;;;;;3.10;2.70;;;;;;;;;;10068066;28;20045;-65
2022/07/31 01:17:54;;;;;;;4.30;2.53;;;;;;;;;;10069374;28;20080;-65
2022/07/31 01:23:20;;;;;;;2.75;2.30;;;;;;;;;;10066191;28;20053;-65
2022/07/31 01:29:01;;;;;;;2.72;2.53;;;;;;;;;;10069066;28;20052;-64
2022/07/31 01:34:15;;;;;;;2.65;2.45;;;;;;;;;;10066655;28;20069;-65
2022/07/31 01:39:09;;;;;;;3.40;3.05;;;;;;;;;;10062728;28;20508;-65
2022/07/31 01:44:05;;;;;;;2.83;2.40;;;;;;;;;;10065253;28;20050;-65
2022/07/31 01:49:01;;;;;;;2.50;2.30;;;;;;;;;;10067357;28;20053;-65
2022/07/31 01:53:56;;;;;;;2.92;2.47;;;;;;;;;;10063915;28;20049;-65
2022/07/31 01:58:49;;;;;;;6.13;2.47;;;;;;;;;;10066142;28;20084;-65
2022/07/31 02:04:06;;;;;;;5.55;2.30;;;;;;;;;;10067844;28;20049;-64
2022/07/31 02:09:03;;;;;;;2.65;2.45;;;;;;;;;;10068225;28;20057;-65
2022/07/31 02:13:56;;;;;;;3.13;2.75;;;;;;;;;;10066768;28;20041;-65
2022/07/31 02:18:51;;;;;;;3.33;2.25;;;;;;;;;;10066932;28;20538;-65
2022/07/31 02:23:47;;;;;;;;;;;;;;;;;;10067157;28;20567;-65
2022/07/31 02:28:43;;;;;;;4.70;2.55;;;;;;;;;;10067529;28;19975;-68
2022/07/31 02:33:37;;;;;;;5.45;3.47;;;;;;;;;;10040268;28;20053;-65
2022/07/31 02:38:32;;;;;;;3.97;3.03;;;;;;;;;;10066596;28;20068;-65
2022/07/31 02:43:27;;;;;;;3.38;3.08;;;;;;;;;;10066211;28;20045;-66
2022/07/31 02:48:24;;;;;;;2.90;2.67;;;;;;;;;;10066013;28;20045;-67
2022/07/31 02:53:21;;;;;;;3.13;2.85;;;;;;;;;;10048139;28;20053;-68
2022/07/31 02:58:22;;;;;;;3.47;3.17;;;;;;;;;;10065947;28;20053;-67
2022/07/31 03:03:16;;;;;;;5.28;3.65;;;;;;;;;;10049337;28;20045;-66
2022/07/31 03:08:10;;;;;;;7.00;4.03;;;;;;;;;;10065824;28;20050;-67
2022/07/31 03:13:08;;;;;;;5.95;5.03;;;;;;;;;;10066034;28;20057;-67
2022/07/31 03:18:04;;;;;;;6.60;5.25;;;;;;;;;;10065032;28;20042;-67
2022/07/31 03:23:05;;;;;;;5.75;5.03;;;;;;;;;;10046552;28;20424;-67
2022/07/31 03:28:08;;;;;;;5.53;5.03;;;;;;;;;;10064883;28;20099;-67
2022/07/31 03:33:02;;;;;;;5.38;4.65;;;;;;;;;;10055861;28;20562;-67
2022/07/31 03:37:59;;;;;;;5.47;4.97;;;;;;;;;;10065270;28;20056;-67
2022/07/31 03:43:14;;;;;;;7.13;5.63;;;;;;;;;;10057573;28;20069;-67
2022/07/31 03:48:09;;;;;;;6.68;5.85;;;;;;;;;;10048749;28;20041;-66
2022/07/31 03:53:03;;;;;;;5.93;5.43;;;;;;;;;;10064735;28;20095;-66
2022/07/31 03:58:07;;;;;;;6.07;5.47;;;;;;;;;;10065096;28;20045;-67
2022/07/31 04:03:09;;;;;;;7.38;4.72;;;;;;;;;;10065373;28;20114;-67
2022/07/31 04:08:25;;;;;;;5.03;4.53;;;;;;;;;;10065375;28;20053;-67
2022/07/31 04:13:19;;;;;;;5.90;5.40;;;;;;;;;;10064698;28;20092;-67
2022/07/31 04:18:15;;;;;;;5.32;4.82;;;;;;;;;;10070570;28;20042;-67
2022/07/31 04:23:10;;;;;;;6.90;5.70;;;;;;;;;;10072064;28;20515;-66
2022/07/31 04:28:30;;;;;;;5.45;4.78;;;;;;;;;;10064419;28;20067;-67
2022/07/31 04:33:24;;;;;;;5.53;5.00;;;;;;;;;;10070765;28;20063;-67
2022/07/31 04:38:20;;;;;;;4.85;4.45;;;;;;;;;;10066758;28;20050;-67
2022/07/31 04:43:15;;;;;;;9.57;5.30;;;;;;;;;;10065179;28;20074;-67
2022/07/31 04:48:11;;;;;;;7.20;5.75;;;;;;;;;;10070261;28;20042;-67
2022/07/31 04:53:11;;;;;;;6.30;5.70;;;;;;;;;;10072095;28;20054;-67
2022/07/31 04:58:06;;;;;;;6.28;5.68;;;;;;;;;;10070042;28;20048;-67
2022/07/31 05:03:00;;;;;;;5.57;3.83;;;;;;;;;;10070729;28;20053;-67
2022/07/31 05:07:53;;;;;;;4.35;3.70;;;;;;;;;;10058336;28;20488;-67
2022/07/31 05:12:53;;;;;;;6.05;4.57;;;;;;;;;;10062177;28;20045;-67
2022/07/31 05:17:47;;;;;;;4.88;4.35;;;;;;;;;;10074965;28;20132;-67
2022/07/31 05:22:59;;;;;;;5.32;4.45;;;;;;;;;;10056772;28;20415;-67
2022/07/31 05:28:16;;;;;;;6.70;4.93;;;;;;;;;;10064552;28;20060;-67
2022/07/31 05:33:19;;;;;;;6.25;4.88;;;;;;;;;;10068726;28;20500;-67
2022/07/31 05:38:13;;;;;;;5.15;4.30;;;;;;;;;;10068537;28;20136;-67
2022/07/31 05:43:18;;;;;;;6.13;5.40;;;;;;;;;;10068977;28;20570;-66
2022/07/31 05:48:39;;;;;;;6.00;5.40;;;;;;;;;;10069298;28;20045;-65
2022/07/31 05:53:33;;;;;;;5.82;5.28;;;;;;;;;;10069590;28;20043;-65
2022/07/31 05:58:48;;;;;;;7.57;6.03;;;;;;;;;;10068829;28;20052;-66
2022/07/31 06:03:46;;;;;;;;;;;;;;;;;;10069757;28;20116;-65
2022/07/31 06:08:47;;;;;;;3.17;2.88;;;;;;;;;;10068123;28;19943;-65
2022/07/31 06:13:42;;;;;;;3.90;3.50;;;;;;;;;;10064591;28;20127;-64
2022/07/31 06:18:59;;;;;;;5.05;3.13;;;;;;;;;;10057901;28;20478;-64
2022/07/31 06:23:53;;;;;;;9.57;2.75;;;;;;;;;;10060551;28;20077;-65
2022/07/31 06:28:54;;;;;;;3.25;2.70;;;;;;;;;;10060871;28;20053;-64
2022/07/31 06:33:52;;;;;;;5.43;3.93;;;;;;;;;;10055203;28;20054;-64
2022/07/31 06:38:49;;;;;;;3.92;3.55;;;;;;;;;;10060726;28;20657;-64
2022/07/31 06:44:04;;;;;;;6.70;4.15;;;;;;;;;;10046023;28;20476;-64
2022/07/31 06:49:21;;;;;;;11.60;4.07;;;;;;;;;;10062885;28;20100;-64
2022/07/31 06:54:15;;;;;;;6.93;5.57;;;;;;;;;;10051920;28;20404;-64
2022/07/31 06:59:09;;;;;;;9.15;8.20;;;;;;;;;;10058315;28;20046;-64
2022/07/31 07:04:03;;;;;;;8.82;7.93;;;;;;;;;;10053116;28;20053;-64
2022/07/31 07:08:56;;;;;;;9.93;7.75;;;;;;;;;;10063969;28;20425;-64
2022/07/31 07:13:52;;;;;;;9.48;6.03;;;;;;;;;;10059035;28;20056;-65
2022/07/31 07:18:45;;;;;;;5.82;5.20;;;;;;;;;;10044708;28;20061;-64
2022/07/31 07:23:39;;;;;;;10.18;4.82;;;;;;;;;;10058861;28;20050;-65
2022/07/31 07:28:53;;;;;;;8.77;4.28;;;;;;;;;;10059145;28;20060;-65
2022/07/31 07:33:47;;;;;;;5.85;4.15;;;;;;;;;;10065379;28;20507;-65
2022/07/31 07:38:45;;;;;;;5.90;2.63;;;;;;;;;;10052195;28;20058;-65
2022/07/31 07:43:41;;;;;;;5.50;3.15;;;;;;;;;;10060417;28;20062;-65
2022/07/31 07:48:40;;;;;;;4.47;2.08;;;;;;;;;;10061958;28;20111;-65
2022/07/31 07:53:42;;;;;;;3.50;2.35;;;;;;;;;;10063215;28;20056;-65
2022/07/31 07:58:36;;;;;;;6.07;3.00;;;;;;;;;;10059898;28;20053;-65
2022/07/31 08:03:59;;;;;;;5.10;3.85;;;;;;;;;;10035579;28;20064;-65
2022/07/31 08:08:54;;;;;;;4.38;2.88;;;;;;;;;;10061027;28;20069;-64
2022/07/31 08:14:06;;;;;;;3.10;2.70;;;;;;;;;;10051445;28;20057;-65
2022/07/31 08:19:19;;;;;;;4.13;3.25;;;;;;;;;;10061244;28;20050;-64
2022/07/31 08:24:15;;;;;;;7.80;2.75;;;;;;;;;;10068881;28;20542;-64
2022/07/31 08:29:10;;;;;;;5.60;3.70;;;;;;;;;;10049701;28;20052;-65
2022/07/31 08:34:06;;;;;;;12.80;4.30;;;;;;;;;;10071201;28;20049;-65
2022/07/31 08:39:02;;;;;;;10.98;4.70;;;;;;;;;;10063501;28;20415;-65
2022/07/31 08:44:11;;;;;;;5.60;4.85;;;;;;;;;;10058370;28;20140;-65
2022/07/31 08:49:06;;;;;;;10.95;4.85;;;;;;;;;;10070875;28;20064;-65
2022/07/31 08:54:00;;;;;;;12.18;5.75;;;;;;;;;;10070175;28;20072;-65
2022/07/31 08:58:56;;;;;;;7.13;3.33;;;;;;;;;;10068648;28;20041;-65
2022/07/31 09:03:53;;;;;;;5.15;2.85;;;;;;;;;;10059101;28;20072;-68
2022/07/31 09:08:47;;;;;;;3.78;3.13;;;;;;;;;;10066799;28;20045;-65
2022/07/31 09:14:02;;;;;;;4.88;3.45;;;;;;;;;;10068027;28;20488;-64
2022/07/31 09:19:04;;;;;;;3.70;2.60;;;;;;;;;;10071304;28;20053;-66
2022/07/31 09:24:32;;;;;;;2.65;2.17;;;;;;;;;;10055177;28;20470;-68
2022/07/31 09:29:36;;;;;;;5.85;2.15;;;;;;;;;;10050124;28;20137;-68
2022/07/31 09:34:30;;;;;;;10.80;2.60;;;;;;;;;;10033636;28;20053;-67
2022/07/31 09:39:30;;;;;;;3.40;2.30;;;;;;;;;;10055595;28;20054;-65
2022/07/31 09:44:54;;;;;;;3.42;2.35;;;;;;;;;;10061819;28;20055;-65
2022/07/31 09:49:54;;;;;;;10.25;3.10;;;;;;;;;;10054508;28;20137;-62
2022/07/31 09:54:59;;;;;;;3.08;2.10;;;;;;;;;;10038445;28;20049;-65
2022/07/31 09:59:53;;;;;;;7.55;2.67;;;;;;;;;;10022785;28;20651;-65
2022/07/31 10:04:47;;;;;;;3.30;2.30;;;;;;;;;;10040764;28;20073;-67
2022/07/31 10:09:42;;;;;;;3.70;2.22;;;;;;;;;;10028497;28;20045;-62
2022/07/31 10:14:42;;;;;;;5.35;3.10;;;;;;;;;;10032484;28;20107;-63
2022/07/31 10:19:40;;;;;;;5.75;2.80;;;;;;;;;;10039188;28;20111;-62
2022/07/31 10:25:08;;;;;;;3.97;2.60;;;;;;;;;;10066205;28;20060;-63
2022/07/31 10:30:03;;;;;;;3.78;2.42;;;;;;;;;;10046470;28;20467;-62
2022/07/31 10:34:56;;;;;;;6.65;1.85;;;;;;;;;;10065360;28;20136;-63
2022/07/31 10:40:20;;;;;;;4.28;1.52;;;;;;;;;;10041093;28;20080;-63
2022/07/31 10:45:21;;;;;;;3.50;2.20;;;;;;;;;;10019830;28;20045;-62
2022/07/31 10:50:42;;;;;;;4.53;1.90;;;;;;;;;;10033767;28;20042;-63
2022/07/31 10:55:45;;;;;;;3.88;2.33;;;;;;;;;;10040358;28;20422;-64
2022/07/31 11:01:06;;;;;;;7.32;2.13;;;;;;;;;;10034174;28;20046;-62
2022/07/31 11:06:23;;;;;;;1.65;1.48;;;;;;;;;;10031438;28;20136;-61
2022/07/31 11:11:32;;;;;;;2.25;1.40;;;;;;;;;;10053152;28;20408;-61
2022/07/31 11:17:09;;;;;;;1.33;1.08;;;;;;;;;;10029549;28;20412;-62
2022/07/31 11:22:11;;;;;;;2.33;1.52;;;;;;;;;;10031922;28;20394;-63
2022/07/31 11:27:33;;;;;;;1.80;1.45;;;;;;;;;;10046023;28;20551;-63
2022/07/31 11:32:28;;;;;;;6.30;1.30;;;;;;;;;;10048362;28;20048;-63
2022/07/31 11:37:48;;;;;;;2.85;1.33;;;;;;;;;;10056307;28;20068;-63
2022/07/31 11:42:49;;;;;;;4.60;1.00;;;;;;;;;;10058209;28;20104;-63
2022/07/31 11:48:07;;;;;;;1.40;1.30;;;;;;;;;;10064977;28;20045;-64
2022/07/31 11:53:08;;;;;;;1.57;1.10;;;;;;;;;;10057345;28;20050;-66
2022/07/31 11:58:02;;;;;;;0.80;0.80;;;;;;;;;;10045607;28;20565;-65
2022/07/31 12:02:56;;;;;;;4.45;1.08;;;;;;;;;;10047060;28;20144;-64
2022/07/31 12:07:50;;;;;;;3.60;1.00;;;;;;;;;;10057299;28;20136;-64
2022/07/31 12:12:44;;;;;;;;;;;;;;;;;;10074584;28;20056;-64
2022/07/31 12:17:38;;;;;;;2.92;0.95;;;;;;;;;;10063817;28;20432;-63
2022/07/31 12:22:34;;;;;;;1.35;1.00;;;;;;;;;;10074249;28;20415;-62
2022/07/31 12:27:28;;;;;;;1.40;1.17;;;;;;;;;;10076902;28;20056;-62
2022/07/31 12:32:26;;;;;;;1.80;1.07;;;;;;;;;;10080480;28;20049;-62
2022/07/31 12:37:21;;;;;;;1.65;1.08;;;;;;;;;;10066539;28;20144;-61
2022/07/31 12:42:44;;;;;;;2.25;0.82;;;;;;;;;;10058016;28;20049;-61
2022/07/31 12:47:38;;;;;;;3.45;1.25;;;;;;;;;;10015087;28;20041;-61
2022/07/31 12:52:33;;;;;;;1.58;0.88;;;;;;;;;;10056325;28;20112;-61
2022/07/31 12:57:28;;;;;;;3.33;1.10;;;;;;;;;;10058403;28;20045;-61
2022/07/31 13:02:23;;;;;;;1.60;0.85;;;;;;;;;;10062912;28;20091;-61
2022/07/31 13:07:17;;;;;;;1.73;1.20;;;;;;;;;;10062771;28;20428;-61
2022/07/31 13:12:12;;;;;;;2.92;0.93;;;;;;;;;;10067615;28;20049;-61
2022/07/31 13:17:06;;;;;;;2.72;0.80;;;;;;;;;;10063590;28;20052;-63
2022/07/31 13:22:02;;;;;;;4.25;0.93;;;;;;;;;;10054891;28;20119;-61
2022/07/31 13:26:57;;;;;;;5.35;0.80;;;;;;;;;;10060027;28;20050;-62
2022/07/31 13:31:51;;;;;;;1.73;1.02;;;;;;;;;;10067425;28;20041;-61
2022/07/31 13:36:46;;;;;;;1.83;1.25;;;;;;;;;;10067670;28;20076;-61
2022/07/31 13:41:40;;;;;;;3.00;0.67;;;;;;;;;;10057112;28;20042;-62
2022/07/31 13:46:36;;;;;;;3.58;1.00;;;;;;;;;;10050613;28;20121;-62
2022/07/31 13:51:32;;;;;;;1.00;0.90;;;;;;;;;;10059271;28;20055;-62
2022/07/31 13:56:26;;;;;;;2.83;0.60;;;;;;;;;;10064805;28;20059;-62
2022/07/31 14:01:34;;;;;;;0.60;0.60;;;;;;;;;;10072409;28;20412;-61
2022/07/31 14:06:48;;;;;;;5.53;0.90;;;;;;;;;;10082400;28;20045;-62
2022/07/31 14:11:43;;;;;;;1.30;0.80;;;;;;;;;;10077103;28;20054;-62
2022/07/31 14:16:37;;;;;;;0.75;0.73;;;;;;;;;;10074483;28;20064;-62
2022/07/31 14:21:33;;;;;;;1.90;1.00;;;;;;;;;;10066380;28;20060;-62
2022/07/31 14:26:26;;;;;;;;;;;;;;;;;;10055436;28;20042;-62
2022/07/31 14:31:21;;;;;;;5.15;1.08;;;;;;;;;;10059610;28;19927;-61
2022/07/31 14:36:15;;;;;;;3.67;2.22;;;;;;;;;;10055209;28;20496;-61
2022/07/31 14:41:10;;;;;;;3.03;1.00;;;;;;;;;;10060370;28;20064;-62
2022/07/31 14:46:05;;;;;;;2.80;0.80;;;;;;;;;;10059616;28;20057;-61
2022/07/31 14:50:58;;;;;;;3.70;1.17;;;;;;;;;;10057345;28;20132;-62
2022/07/31 14:55:53;;;;;;;1.10;1.00;;;;;;;;;;10053902;28;20132;-62
2022/07/31 15:00:56;;;;;;;4.15;1.23;;;;;;;;;;10054549;28;20046;-61
2022/07/31 15:05:52;;;;;;;2.13;1.07;;;;;;;;;;10055414;28;20049;-62
2022/07/31 15:11:06;;;;;;;3.43;1.00;;;;;;;;;;10055278;28;20408;-67
2022/07/31 15:16:01;;;;;;;2.72;1.13;;;;;;;;;;10059042;28;20401;-68
2022/07/31 15:20:55;;;;;;;1.30;1.17;;;;;;;;;;10053660;28;20129;-68
2022/07/31 15:25:49;;;;;;;3.03;1.45;;;;;;;;;;10066767;28;20045;-71
2022/07/31 15:30:42;;;;;;;3.28;1.38;;;;;;;;;;10053668;28;20041;-67
2022/07/31 15:35:36;;;;;;;5.05;0.90;;;;;;;;;;10061647;28;20056;-71
2022/07/31 15:40:30;;;;;;;2.25;1.30;;;;;;;;;;10054078;28;20061;-66
2022/07/31 15:45:25;;;;;;;1.77;0.90;;;;;;;;;;10059277;28;20049;-69
2022/07/31 15:50:19;;;;;;;3.33;1.15;;;;;;;;;;10053792;28;20050;-69
2022/07/31 15:55:12;;;;;;;1.17;1.00;;;;;;;;;;10051235;28;20103;-74
2022/07/31 16:00:12;;;;;;;1.50;1.10;;;;;;;;;;10043804;28;20053;-71
2022/07/31 16:05:07;;;;;;;0.85;0.85;;;;;;;;;;10047753;28;20050;-74
2022/07/31 16:10:14;;;;;;;2.47;1.10;;;;;;;;;;10057822;28;20063;-67
2022/07/31 16:15:11;;;;;;;1.55;1.00;;;;;;;;;;10059667;28;20516;-66
2022/07/31 16:20:10;;;;;;;2.60;1.38;;;;;;;;;;10061664;28;20085;-72
2022/07/31 16:25:06;;;;;;;0.70;0.70;;;;;;;;;;10053488;28;20054;-70
2022/07/31 16:30:00;;;;;;;1.98;1.10;;;;;;;;;;10070679;28;20054;-69
2022/07/31 16:34:55;;;;;;;1.90;1.30;;;;;;;;;;10058628;28;20095;-69
2022/07/31 16:39:54;;;;;;;2.72;1.17;;;;;;;;;;10062964;28;20045;-65
2022/07/31 16:44:53;;;;;;;1.83;1.50;;;;;;;;;;10064128;28;20050;-68
2022/07/31 16:49:47;;;;;;;2.15;1.23;;;;;;;;;;10066922;28;20088;-70
2022/07/31 16:54:41;;;;;;;1.27;1.17;;;;;;;;;;10059567;28;20056;-66
2022/07/31 16:59:35;;;;;;;1.38;1.17;;;;;;;;;;10063527;28;20052;-82
2022/07/31 17:04:49;;;;;;;3.38;1.50;;;;;;;;;;10061245;28;20115;-65
2022/07/31 17:09:46;;;;;;;3.00;1.30;;;;;;;;;;10055066;28;20037;-64
2022/07/31 17:14:42;;;;;;;1.75;1.65;;;;;;;;;;10061443;28;20111;-72
2022/07/31 17:19:35;;;;;;;1.25;1.15;;;;;;;;;;10065530;28;20049;-73
2022/07/31 17:24:40;;;;;;;5.68;1.30;;;;;;;;;;10064070;28;20067;-73
2022/07/31 17:29:38;;;;;;;2.13;1.60;;;;;;;;;;10058602;28;20042;-72
2022/07/31 17:34:35;;;;;;;1.25;1.15;;;;;;;;;;10058492;28;20038;-67
2022/07/31 17:39:30;;;;;;;1.85;1.23;;;;;;;;;;10057621;28;20053;-74
2022/07/31 17:44:25;;;;;;;1.25;1.20;;;;;;;;;;10061719;28;20056;-70
2022/07/31 17:49:19;;;;;;;2.35;1.30;;;;;;;;;;10055265;28;20053;-70
2022/07/31 17:54:12;;;;;;;1.85;1.67;;;;;;;;;;10061515;28;20550;-67
2022/07/31 17:59:07;;;;;;;5.80;1.70;;;;;;;;;;10060218;28;20530;-65
2022/07/31 18:04:02;;;;;;;5.78;1.50;;;;;;;;;;10058749;28;20054;-69
2022/07/31 18:08:56;;;;;;;3.35;1.48;;;;;;;;;;10054736;28;20054;-72
2022/07/31 18:13:51;;;;;;;9.85;1.70;;;;;;;;;;10052770;28;20045;-68
2022/07/31 18:18:49;;;;;;;4.55;1.58;;;;;;;;;;10054141;28;20053;-70
2022/07/31 18:23:46;;;;;;;2.65;1.88;;;;;;;;;;10059139;28;20049;-69
2022/07/31 18:28:41;;;;;;;1.98;1.80;;;;;;;;;;10070678;28;20536;-70
2022/07/31 18:33:36;;;;;;;5.60;2.10;;;;;;;;;;10062405;28;20417;-70
2022/07/31 18:38:30;;;;;;;6.53;2.33;;;;;;;;;;10065871;28;20413;-70
2022/07/31 18:43:24;;;;;;;5.13;2.05;;;;;;;;;;10062514;28;20045;-71
2022/07/31 18:48:19;;;;;;;7.03;2.10;;;;;;;;;;10059957;28;20049;-70
2022/07/31 18:53:14;;;;;;;3.22;2.92;;;;;;;;;;10063323;28;20080;-70
2022/07/31 18:58:11;;;;;;;9.63;3.38;;;;;;;;;;10028013;28;20092;-68
2022/07/31 19:03:08;;;;;;;6.15;3.40;;;;;;;;;;10052115;28;20111;-66
2022/07/31 19:08:04;;;;;;;2.17;1.55;;;;;;;;;;10059341;28;20050;-65
2022/07/31 19:13:00;;;;;;;6.97;2.20;;;;;;;;;;10053294;28;20095;-67
2022/07/31 19:17:55;;;;;;;1.63;1.50;;;;;;;;;;10055576;28;20054;-64
2022/07/31 19:22:55;;;;;;;9.25;3.22;;;;;;;;;;10058811;28;20057;-64
2022/07/31 19:27:49;;;;;;;2.47;1.67;;;;;;;;;;10057814;28;20055;-67
2022/07/31 19:32:46;;;;;;;1.92;1.67;;;;;;;;;;10060314;28;20041;-63
2022/07/31 19:37:40;;;;;;;4.47;2.30;;;;;;;;;;10062012;28;20054;-64
2022/07/31 19:42:34;;;;;;;4.35;2.03;;;;;;;;;;10064669;28;20084;-61
2022/07/31 19:47:31;;;;;;;5.55;2.13;;;;;;;;;;10069348;28;20108;-61
2022/07/31 19:52:24;;;;;;;6.28;2.28;;;;;;;;;;10076176;28;20060;-62
2022/07/31 19:57:18;;;;;;;3.63;2.30;;;;;;;;;;10073590;28;20134;-62
2022/07/31 20:02:14;;;;;;;4.53;2.50;;;;;;;;;;10083665;28;20057;-65
2022/07/31 20:07:08;;;;;;;7.63;3.50;;;;;;;;;;10074147;28;20056;-63
2022/07/31 20:12:03;;;;;;;7.10;3.72;;;;;;;;;;10073189;28;20517;-66
2022/07/31 20:16:58;;;;;;;5.13;2.60;;;;;;;;;;10084532;28;20057;-64
2022/07/31 20:21:51;;;;;;;6.30;3.42;;;;;;;;;;10085614;28;20062;-63
2022/07/31 20:26:45;;;;;;;6.53;3.15;;;;;;;;;;10086042;28;20056;-64
2022/07/31 20:31:39;;;;;;;9.15;2.55;;;;;;;;;;10089511;28;20511;-64
2022/07/31 20:36:33;;;;;;;5.40;3.15;;;;;;;;;;10089727;28;20060;-63
2022/07/31 20:41:27;;;;;;;8.55;3.08;;;;;;;;;;10086385;28;20496;-64
2022/07/31 20:46:21;;;;;;;6.20;2.88;;;;;;;;;;10087045;28;20049;-64
2022/07/31 20:51:19;;;;;;;7.25;2.47;;;;;;;;;;10092200;28;20057;-65
2022/07/31 20:56:13;;;;;;;3.97;2.33;;;;;;;;;;10089995;28;20084;-64
2022/07/31 21:01:07;;;;;;;4.30;2.33;;;;;;;;;;10080089;28;20045;-68
2022/07/31 21:06:01;;;;;;;6.85;2.70;;;;;;;;;;10086863;28;20048;-63
2022/07/31 21:10:55;;;;;;;4.90;2.67;;;;;;;;;;10067269;28;20045;-63
2022/07/31 21:15:52;;;;;;;;;;;;;;;;;;10092702;28;21275;-62
2022/07/31 21:20:47;;;;;;;3.22;2.90;;;;;;;;;;10090292;28;19952;-62
2022/07/31 21:25:46;;;;;;;14.70;3.25;;;;;;;;;;10084148;28;20041;-62
2022/07/31 21:30:41;;;;;;;5.70;2.38;;;;;;;;;;10092651;28;20053;-62
2022/07/31 21:35:35;;;;;;;8.77;2.85;;;;;;;;;;10090294;28;20056;-62
2022/07/31 21:40:32;;;;;;;6.55;2.47;;;;;;;;;;10070937;28;20412;-62
2022/07/31 21:45:27;;;;;;;5.90;2.60;;;;;;;;;;10056369;28;20080;-62
2022/07/31 21:50:42;;;;;;;6.38;2.72;;;;;;;;;;10064476;28;20044;-61
2022/07/31 21:55:37;;;;;;;3.67;3.10;;;;;;;;;;10047784;28;20065;-61
2022/07/31 22:00:33;;;;;;;7.50;2.85;;;;;;;;;;10063680;28;20132;-61
2022/07/31 22:10:38;;;;;;;6.07;2.95;;;;;;;;;;10074783;28;20460;-60
2022/07/31 22:15:32;;;;;;;5.50;3.10;;;;;;;;;;10084895;28;20051;-61
2022/07/31 22:20:45;;;;;;;8.48;2.95;;;;;;;;;;10061214;28;20072;-61
2022/07/31 22:25:39;;;;;;;8.95;3.28;;;;;;;;;;10079051;28;20415;-62
2022/07/31 22:30:33;;;;;;;10.43;2.90;;;;;;;;;;10057976;28;20056;-61
2022/07/31 22:35:27;;;;;;;5.22;3.25;;;;;;;;;;10076896;28;20053;-63
2022/07/31 22:40:22;;;;;;;4.80;3.05;;;;;;;;;;10050727;28;20045;-60
2022/07/31 22:45:16;;;;;;;5.70;3.33;;;;;;;;;;10066671;28;20415;-61
2022/07/31 22:50:12;;;;;;;6.63;2.65;;;;;;;;;;10076276;28;20075;-61
2022/07/31 22:55:06;;;;;;;13.57;2.50;;;;;;;;;;10074235;28;20084;-61
2022/07/31 22:59:59;;;;;;;5.20;2.97;;;;;;;;;;10066637;28;20136;-61
2022/07/31 23:04:53;;;;;;;7.38;3.08;;;;;;;;;;10075986;28;20448;-61
2022/07/31 23:09:47;;;;;;;4.63;2.72;;;;;;;;;;10073363;28;20045;-61
2022/07/31 23:14:41;;;;;;;8.75;2.67;;;;;;;;;;10063471;28;20073;-61
2022/07/31 23:19:36;;;;;;;7.60;3.08;;;;;;;;;;10078603;28;20057;-62
2022/07/31 23:24:31;;;;;;;8.35;3.45;;;;;;;;;;10071158;28;20104;-62
2022/07/31 23:29:26;;;;;;;4.97;2.80;;;;;;;;;;10065219;28;20054;-62
2022/07/31 23:34:21;;;;;;;3.53;2.65;;;;;;;;;;10063763;28;20496;-62
2022/07/31 23:39:16;;;;;;;5.45;2.50;;;;;;;;;;10066023;28;20508;-62
2022/07/31 23:44:09;;;;;;;4.25;2.72;;;;;;;;;;10064168;28;20041;-62
2022/07/31 23:49:02;;;;;;;7.50;2.35;;;;;;;;;;10062300;28;20076;-62
2022/07/31 23:53:57;;;;;;;3.83;2.78;;;;;;;;;;10057701;28;20080;-62
2022/07/31 23:58:50;;;;;;;6.15;2.40;;;;;;;;;;10062186;28;20492;-62
